Time;durP1;ratioP1;P1;durP2;ratioP2;P2;SDS_P1;SDS_P2;PMS_P1;PMS_P2;Temp;Humidity;BMP_temperature;BMP_pressure;BME280_temperature;BME280_humidity;BME280_pressure;Samples;Min_cycle;Max_cycle;Signal;HPM_P1;HPM_P2
2021/04/26 00:00:22;;;;;;;12.53;8.90;;;;;;;14.29;43.01;100510.61;1799540;79;21137;-80
2021/04/26 00:02:50;;;;;;;10.53;9.13;;;;;;;14.26;43.11;100513.66;1799616;79;21125;-79
2021/04/26 00:05:19;;;;;;;11.40;8.85;;;;;;;14.25;43.18;100511.98;1799629;78;21117;-78
2021/04/26 00:07:46;;;;;;;;;;;;;;;14.22;43.33;100518.59;1802268;79;21521;-76
2021/04/26 00:10:14;;;;;;;12.15;8.70;;;;;;;14.21;43.42;100515.54;1799538;79;20240;-79
2021/04/26 00:12:41;;;;;;;12.88;8.45;;;;;;;14.12;43.67;100509.38;1799582;79;21129;-78
2021/04/26 00:15:19;;;;;;;11.80;9.15;;;;;;;14.09;43.83;100509.76;1799413;79;21567;-80
2021/04/26 00:17:48;;;;;;;14.17;8.80;;;;;;;14.13;43.83;100503.51;1800037;78;22715;-77
2021/04/26 00:20:18;;;;;;;13.53;9.83;;;;;;;14.21;43.73;100494.83;1799580;79;21529;-77
2021/04/26 00:22:45;;;;;;;24.87;9.93;;;;;;;14.23;43.78;100490.63;1799517;79;21058;-76
2021/04/26 00:25:14;;;;;;;12.70;9.10;;;;;;;14.25;43.91;100488.57;1799492;79;21054;-80
2021/04/26 00:27:42;;;;;;;12.93;9.55;;;;;;;14.27;44.00;100485.72;1781670;79;21583;-79
2021/04/26 00:30:13;;;;;;;11.80;9.95;;;;;;;14.27;44.11;100487.06;1799637;79;21541;-78
2021/04/26 00:32:42;;;;;;;15.03;10.30;;;;;;;14.27;44.26;100481.67;1781792;79;21108;-81
2021/04/26 00:35:11;;;;;;;13.70;10.18;;;;;;;14.26;44.39;100484.02;1799834;79;21142;-78
2021/04/26 00:37:41;;;;;;;16.17;11.35;;;;;;;14.25;44.51;100479.66;1800116;79;21158;-76
2021/04/26 00:40:10;;;;;;;18.60;12.35;;;;;;;14.23;44.55;100481.70;1799617;79;21132;-79
2021/04/26 00:42:37;;;;;;;26.87;15.53;;;;;;;14.13;44.17;100484.66;1799566;79;21158;-79
2021/04/26 00:45:09;;;;;;;;;;;;;;;13.98;44.21;100473.80;1802109;79;21066;-79
2021/04/26 00:47:37;;;;;;;25.00;16.32;;;;;;;13.85;44.20;100470.87;1799702;79;20493;-80
2021/04/26 00:50:08;;;;;;;26.23;18.12;;;;;;;13.72;44.23;100463.41;1799593;79;21042;-77
2021/04/26 00:52:35;;;;;;;27.58;17.70;;;;;;;13.58;44.41;100465.01;1799597;79;21050;-78
2021/04/26 00:55:02;;;;;;;;;;;;;;;13.49;44.64;100456.66;1784190;79;21082;-78
2021/04/26 00:57:29;;;;;;;22.75;15.45;;;;;;;13.53;44.56;100458.46;1799492;79;20279;-77
2021/04/26 00:59:57;;;;;;;;;;;;;;;13.48;44.57;100454.13;1784280;79;21046;-77
2021/04/26 01:02:24;;;;;;;23.07;16.70;;;;;;;13.45;44.54;100452.64;1781709;79;20232;-77
2021/04/26 01:04:54;;;;;;;23.18;16.62;;;;;;;13.43;44.52;100446.58;1799649;79;21137;-77
2021/04/26 01:07:21;;;;;;;23.90;17.80;;;;;;;13.44;44.50;100449.59;1799527;79;21121;-81
2021/04/26 01:09:49;;;;;;;26.12;18.70;;;;;;;13.47;44.41;100453.80;1799470;79;21129;-77
2021/04/26 01:12:53;;;;;;;29.42;21.55;;;;;;;13.48;44.30;100444.19;1799542;79;21121;-80
2021/04/26 01:15:39;;;;;;;30.85;21.30;;;;;;;13.49;44.22;100439.17;1799551;79;21096;-78
2021/04/26 01:18:18;;;;;;;33.35;23.10;;;;;;;13.45;44.18;100429.77;1800202;79;21176;-79
2021/04/26 01:21:10;;;;;;;34.15;23.98;;;;;;;13.41;44.15;100425.24;1779790;79;21050;-78
2021/04/26 01:24:10;;;;;;;30.92;22.75;;;;;;;13.38;44.24;100422.06;1799467;79;21130;-79
2021/04/26 01:26:59;;;;;;;32.50;22.87;;;;;;;13.31;44.17;100426.49;1799647;78;21109;-78
2021/04/26 01:29:42;;;;;;;;;;;;;;;13.18;44.18;100423.83;1779549;79;21392;-77
2021/04/26 01:32:21;;;;;;;32.38;23.10;;;;;;;13.05;44.28;100414.14;1799544;79;20212;-78
2021/04/26 01:34:49;;;;;;;34.80;24.18;;;;;;;12.95;44.43;100417.55;1796676;79;21525;-77
2021/04/26 01:37:18;;;;;;;36.40;23.83;;;;;;;12.87;44.64;100416.23;1798885;79;21133;-77
2021/04/26 01:39:46;;;;;;;37.70;23.27;;;;;;;12.80;44.79;100416.59;1781866;79;21098;-80
2021/04/26 01:42:15;;;;;;;;;;;;;;;12.70;44.90;100414.10;1784459;79;21081;-78
2021/04/26 01:44:42;;;;;;;34.35;23.92;;;;;;;12.61;45.11;100410.60;1799690;79;20228;-79
2021/04/26 01:47:10;;;;;;;36.77;26.27;;;;;;;12.59;45.22;100413.98;1799686;79;21109;-76
2021/04/26 01:49:38;;;;;;;41.48;25.02;;;;;;;12.59;45.23;100412.64;1799589;78;21137;-77
2021/04/26 01:52:10;;;;;;;38.98;25.12;;;;;;;12.64;45.22;100403.55;1799676;79;21066;-77
2021/04/26 01:54:38;;;;;;;33.00;24.43;;;;;;;12.69;45.10;100401.18;1782171;79;21569;-78
2021/04/26 01:57:06;;;;;;;36.00;23.70;;;;;;;12.68;44.97;100390.10;1799714;79;21524;-80
2021/04/26 01:59:35;;;;;;;43.20;24.45;;;;;;;12.67;44.86;100383.06;1799655;79;21093;-79
2021/04/26 02:02:02;;;;;;;32.63;23.83;;;;;;;12.61;44.98;100379.70;1756210;79;21081;-81
2021/04/26 02:04:33;;;;;;;34.55;23.80;;;;;;;12.54;45.17;100377.90;1799662;79;21117;-80
2021/04/26 02:07:02;;;;;;;36.53;22.27;;;;;;;12.46;45.31;100372.04;1799065;79;21089;-80
2021/04/26 02:09:39;;;;;;;31.85;22.42;;;;;;;12.36;45.51;100378.12;1799651;79;21137;-81
2021/04/26 02:12:14;;;;;;;36.75;26.30;;;;;;;12.27;45.76;100381.83;1799727;79;21061;-76
2021/04/26 02:14:43;;;;;;;48.25;29.45;;;;;;;12.22;45.97;100388.19;1798368;79;21548;-78
2021/04/26 02:17:12;;;;;;;47.20;28.55;;;;;;;12.22;45.95;100386.37;1799714;79;21477;-77
2021/04/26 02:19:39;;;;;;;60.35;28.87;;;;;;;12.19;45.97;100390.22;1799649;79;21085;-78
2021/04/26 02:22:08;;;;;;;73.52;39.10;;;;;;;12.16;46.04;100387.03;1799730;78;21039;-77
2021/04/26 02:24:37;;;;;;;98.70;50.52;;;;;;;12.19;46.12;100390.73;1796951;79;21104;-83
2021/04/26 02:27:04;;;;;;;;;;;;;;;12.25;46.09;100377.95;1802204;78;21092;-80
2021/04/26 02:29:32;;;;;;;79.85;44.00;;;;;;;12.35;46.00;100374.59;1799781;79;20224;-77
2021/04/26 02:32:02;;;;;;;71.53;41.68;;;;;;;12.43;45.86;100367.00;1799618;79;21565;-76
2021/04/26 02:34:35;;;;;;;69.90;38.60;;;;;;;12.47;45.65;100372.36;1799588;79;21117;-76
2021/04/26 02:37:07;;;;;;;69.53;37.13;;;;;;;12.44;45.53;100367.33;1799653;79;21497;-80
2021/04/26 02:39:35;;;;;;;69.45;37.83;;;;;;;12.41;45.52;100358.29;1799703;78;21508;-78
2021/04/26 02:42:03;;;;;;;68.07;37.95;;;;;;;12.40;45.52;100343.19;1799699;79;21066;-79
2021/04/26 02:44:32;;;;;;;68.35;38.80;;;;;;;12.37;45.47;100344.36;1781804;79;21133;-79
2021/04/26 02:47:12;;;;;;;71.20;41.53;;;;;;;12.30;45.43;100332.61;1799612;79;21158;-77
2021/04/26 02:49:44;;;;;;;93.30;49.85;;;;;;;12.23;45.61;100326.28;1799118;79;21082;-78
2021/04/26 02:52:14;;;;;;;93.37;52.38;;;;;;;12.19;45.72;100326.28;1799567;78;21073;-80
2021/04/26 02:54:44;;;;;;;94.92;52.50;;;;;;;12.15;45.69;100316.38;1799513;79;21054;-78
2021/04/26 02:57:12;;;;;;;94.30;50.48;;;;;;;12.15;45.66;100309.67;1799572;79;21137;-76
2021/04/26 02:59:39;;;;;;;98.80;51.23;;;;;;;12.20;45.73;100314.52;1798427;79;21612;-77
2021/04/26 03:02:06;;;;;;;164.72;57.50;;;;;;;12.22;45.75;100324.61;1799599;79;21086;-78
2021/04/26 03:04:51;;;;;;;156.02;51.13;;;;;;;12.23;45.70;100320.91;1714033;83;21190;-79
2021/04/26 03:07:19;;;;;;;102.32;50.20;;;;;;;12.26;45.72;100326.42;1772314;79;21120;-78
2021/04/26 03:09:51;;;;;;;125.27;49.00;;;;;;;12.32;45.70;100325.23;1799565;78;21137;-76
2021/04/26 03:12:19;;;;;;;89.90;46.98;;;;;;;12.39;45.65;100307.91;1781494;79;21528;-76
2021/04/26 03:14:48;;;;;;;81.10;45.50;;;;;;;12.43;45.51;100303.88;1799596;79;21627;-77
2021/04/26 03:17:15;;;;;;;150.32;44.70;;;;;;;12.47;45.33;100301.17;1799450;78;21086;-77
2021/04/26 03:19:44;;;;;;;86.05;42.98;;;;;;;12.46;45.35;100309.42;1757252;79;21086;-76
2021/04/26 03:22:12;;;;;;;61.63;36.88;;;;;;;12.38;45.42;100296.84;1799067;79;21144;-75
2021/04/26 03:24:41;;;;;;;46.75;27.75;;;;;;;12.34;45.28;100291.48;1798329;79;21117;-78
2021/04/26 03:27:08;;;;;;;;;;;;;;;12.27;45.24;100295.38;1800941;79;21383;-77
2021/04/26 03:29:36;;;;;;;60.87;34.43;;;;;;;12.23;45.38;100299.42;1799217;79;20740;-77
2021/04/26 03:32:03;;;;;;;;;;;;;;;12.22;45.66;100307.63;1801611;78;21125;-77
2021/04/26 03:34:33;;;;;;;46.92;26.87;;;;;;;12.27;45.62;100294.55;1798708;79;20466;-79
2021/04/26 03:37:00;;;;;;;40.08;23.42;;;;;;;12.31;45.57;100298.06;1781333;79;21533;-78
2021/04/26 03:39:27;;;;;;;;;;;;;;;12.36;45.54;100294.34;1801043;78;21692;-77
2021/04/26 03:41:56;;;;;;;43.13;24.77;;;;;;;12.45;45.45;100300.52;1798018;79;20259;-77
2021/04/26 03:44:23;;;;;;;31.55;20.00;;;;;;;12.54;45.35;100307.54;1798199;79;21666;-77
2021/04/26 03:47:08;;;;;;;31.30;19.10;;;;;;;12.63;45.09;100325.30;1797321;79;21185;-77
2021/04/26 03:49:54;;;;;;;32.75;20.20;;;;;;;12.73;44.90;100311.64;1797682;79;21160;-76
2021/04/26 03:52:40;;;;;;;32.98;20.25;;;;;;;12.80;44.77;100291.60;1792849;77;21147;-74
2021/04/26 03:55:11;;;;;;;33.98;20.23;;;;;;;12.83;44.66;100276.48;1788999;79;21175;-79
2021/04/26 03:57:39;;;;;;;30.82;20.62;;;;;;;12.85;44.62;100268.58;1767548;79;21540;-76
2021/04/26 04:00:08;;;;;;;34.10;21.50;;;;;;;12.83;44.48;100255.80;1798396;77;21153;-78
2021/04/26 04:02:38;;;;;;;37.63;24.63;;;;;;;12.78;44.88;100255.51;1797327;79;21148;-79
2021/04/26 04:05:07;;;;;;;48.38;28.52;;;;;;;12.81;44.97;100269.08;1811370;77;21101;-79
2021/04/26 04:07:52;;;;;;;47.08;28.80;;;;;;;12.79;45.27;100271.95;1722726;82;21569;-81
2021/04/26 04:10:38;;;;;;;39.67;24.52;;;;;;;12.86;45.44;100280.16;1783971;77;21160;-77
2021/04/26 04:13:23;;;;;;;44.65;27.32;;;;;;;12.95;45.41;100280.44;1799975;77;21251;-79
2021/04/26 04:15:51;;;;;;;42.48;26.05;;;;;;;13.04;45.38;100279.38;1807535;77;21220;-76
2021/04/26 04:18:20;;;;;;;48.08;27.82;;;;;;;13.10;45.30;100284.03;1797985;77;21253;-79
2021/04/26 04:20:47;;;;;;;53.75;30.43;;;;;;;13.15;45.16;100286.18;1806702;79;21710;-75
2021/04/26 04:23:14;;;;;;;;;;;;;;;13.20;45.12;100291.34;1819857;77;21196;-75
2021/04/26 04:25:41;;;;;;;45.55;28.25;;;;;;;13.25;45.16;100293.52;1785918;78;20272;-78
2021/04/26 04:28:08;;;;;;;46.92;28.77;;;;;;;13.26;45.40;100297.87;1810600;79;21149;-78
2021/04/26 04:30:36;;;;;;;51.45;32.42;;;;;;;13.27;45.63;100305.47;1798391;78;21652;-78
2021/04/26 04:33:23;;;;;;;34.63;23.50;;;;;;;13.28;45.72;100306.62;1782821;79;21717;-77
2021/04/26 04:36:09;;;;;;;28.25;18.35;;;;;;;13.28;45.90;100300.41;1798570;79;21156;-76
2021/04/26 04:38:55;;;;;;;27.60;17.80;;;;;;;13.29;46.06;100295.36;1801219;77;21204;-77
2021/04/26 04:41:45;;;;;;;21.90;14.73;;;;;;;13.28;46.24;100296.38;1783089;80;21175;-81
2021/04/26 04:44:12;;;;;;;19.62;13.50;;;;;;;13.26;46.34;100301.91;1772291;79;21105;-76
2021/04/26 04:46:40;;;;;;;15.35;10.88;;;;;;;13.25;46.40;100292.69;1793828;79;21607;-79
2021/04/26 04:49:12;;;;;;;13.98;9.13;;;;;;;13.21;46.09;100295.70;1782850;79;21100;-82
2021/04/26 04:51:40;;;;;;;12.00;8.65;;;;;;;13.18;45.82;100304.66;1799718;77;21108;-79
2021/04/26 04:54:09;;;;;;;12.80;8.90;;;;;;;13.18;45.74;100307.34;1806577;77;21152;-78
2021/04/26 04:56:38;;;;;;;12.47;8.25;;;;;;;13.17;45.61;100309.20;1798656;79;21212;-79
2021/04/26 04:59:07;;;;;;;16.45;8.25;;;;;;;13.16;45.44;100299.95;1806328;79;21755;-77
2021/04/26 05:01:35;;;;;;;11.65;8.13;;;;;;;13.09;45.33;100305.22;1809382;79;21183;-77
2021/04/26 05:04:20;;;;;;;14.03;9.48;;;;;;;12.99;45.24;100299.24;1788108;79;21183;-77
2021/04/26 05:06:54;;;;;;;13.30;9.30;;;;;;;12.88;45.67;100295.59;1785078;77;21195;-77
2021/04/26 05:09:39;;;;;;;10.20;7.12;;;;;;;12.86;45.67;100305.70;1796304;77;21555;-77
2021/04/26 05:12:27;;;;;;;10.20;7.17;;;;;;;12.81;45.63;100294.14;1797284;79;21487;-76
2021/04/26 05:15:05;;;;;;;10.00;7.30;;;;;;;12.80;45.48;100305.88;1795456;77;21427;-78
2021/04/26 05:17:32;;;;;;;13.75;8.28;;;;;;;12.77;45.53;100299.53;1795755;77;21478;-77
2021/04/26 05:20:00;;;;;;;15.35;9.95;;;;;;;12.72;45.50;100292.98;1793284;77;21176;-78
2021/04/26 05:22:29;;;;;;;14.15;9.53;;;;;;;12.63;45.60;100290.36;1792288;77;21113;-75
2021/04/26 05:24:58;;;;;;;9.95;7.15;;;;;;;12.57;45.81;100276.27;1796549;77;21104;-77
2021/04/26 05:27:26;;;;;;;12.68;7.60;;;;;;;12.54;45.84;100272.61;1800664;77;21119;-79
2021/04/26 05:29:53;;;;;;;9.55;6.90;;;;;;;12.49;45.81;100264.72;1790447;77;21659;-77
2021/04/26 05:32:20;;;;;;;8.60;6.30;;;;;;;12.47;46.04;100258.70;1792244;79;21106;-79
2021/04/26 05:34:48;;;;;;;9.93;7.75;;;;;;;12.47;46.09;100260.05;1726032;79;21176;-76
2021/04/26 05:37:15;;;;;;;;;;;;;;;12.47;46.29;100263.56;1797298;79;21128;-78
2021/04/26 05:39:43;;;;;;;17.27;10.95;;;;;;;12.48;46.54;100265.73;1795394;77;20243;-78
2021/04/26 05:42:10;;;;;;;12.25;8.53;;;;;;;12.47;46.75;100271.63;1768082;79;21159;-78
2021/04/26 05:44:38;;;;;;;11.83;8.68;;;;;;;12.50;46.67;100274.48;1796263;77;21113;-78
2021/04/26 05:47:12;;;;;;;13.30;10.55;;;;;;;12.51;46.55;100274.80;1764115;79;21133;-77
2021/04/26 05:49:40;;;;;;;13.70;9.65;;;;;;;12.52;46.58;100284.02;1798177;77;21152;-78
2021/04/26 05:52:07;;;;;;;13.72;10.53;;;;;;;12.55;46.42;100278.81;1793854;77;21139;-78
2021/04/26 05:54:34;;;;;;;;;;;;;;;12.54;46.26;100299.98;1798862;79;21127;-79
2021/04/26 05:57:03;;;;;;;15.60;12.20;;;;;;;12.50;46.32;100298.15;1796146;77;20256;-77
2021/04/26 05:59:31;;;;;;;16.23;10.63;;;;;;;12.47;46.43;100307.05;1754468;78;21615;-78
2021/04/26 06:01:59;;;;;;;18.23;11.45;;;;;;;12.42;46.46;100311.09;1754328;80;21144;-77
2021/04/26 06:04:29;;;;;;;16.37;11.78;;;;;;;12.39;46.40;100317.31;1734539;80;21132;-77
2021/04/26 06:06:56;;;;;;;14.70;10.78;;;;;;;12.41;46.55;100304.56;1730092;81;21619;-77
2021/04/26 06:09:24;;;;;;;;;;;;;;;12.44;46.48;100312.25;1765394;80;21084;-77
2021/04/26 06:11:51;;;;;;;18.90;12.88;;;;;;;12.41;46.40;100308.09;1744745;80;20398;-77
2021/04/26 06:14:20;;;;;;;9.23;6.37;;;;;;;12.39;46.48;100321.34;1739897;80;21171;-79
2021/04/26 06:16:47;;;;;;;3.90;3.50;;;;;;;12.35;46.49;100333.44;1761027;80;21154;-78
2021/04/26 06:19:16;;;;;;;3.30;2.60;;;;;;;12.28;46.07;100325.25;1760858;80;21125;-79
2021/04/26 06:21:43;;;;;;;2.08;1.70;;;;;;;12.23;45.88;100324.94;1762108;80;21120;-77
2021/04/26 06:24:11;;;;;;;4.30;2.47;;;;;;;12.12;45.54;100305.98;1724573;80;21143;-78
2021/04/26 06:26:39;;;;;;;4.80;4.30;;;;;;;12.00;45.72;100277.84;1743554;80;21153;-80
2021/04/26 06:29:07;;;;;;;3.75;3.45;;;;;;;11.91;45.81;100273.00;1729781;80;21104;-78
2021/04/26 06:34:23;;;;;;;4.33;3.92;;;;;;;11.78;46.29;100274.50;1689649;81;21128;-77
2021/04/26 06:36:52;;;;;;;5.53;4.62;;;;;;;11.73;46.54;100271.50;1747171;80;21119;-76
2021/04/26 06:39:24;;;;;;;;;;;;;;;11.69;46.81;100277.19;1752936;80;21221;-77
2021/04/26 06:44:43;;;;;;;7.85;5.08;;;;;;;11.67;47.17;100276.54;1863364;75;23146;-75
2021/04/26 06:47:11;;;;;;;5.90;3.92;;;;;;;11.64;47.21;100282.23;1834547;76;21160;-77
2021/04/26 06:49:47;;;;;;;4.58;4.08;;;;;;;11.64;47.21;100282.23;1830026;76;21188;-75
2021/04/26 06:52:34;;;;;;;5.97;4.28;;;;;;;11.64;47.13;100298.84;1818065;76;21242;-78
2021/04/26 06:55:12;;;;;;;7.10;5.97;;;;;;;11.60;46.96;100307.72;1814088;77;21235;-79
2021/04/26 06:57:40;;;;;;;5.03;3.35;;;;;;;11.56;46.63;100310.40;1812249;76;21220;-79
2021/04/26 07:00:18;;;;;;;2.72;2.20;;;;;;;11.50;46.58;100319.64;1809403;76;21489;-78
2021/04/26 07:02:50;;;;;;;3.17;2.87;;;;;;;11.44;46.40;100327.83;1803836;76;21688;-79
2021/04/26 07:05:17;;;;;;;2.87;2.58;;;;;;;11.37;46.16;100321.47;1828746;76;21199;-81
2021/04/26 07:07:45;;;;;;;3.35;2.87;;;;;;;11.28;46.10;100322.47;1827573;76;21185;-78
2021/04/26 07:10:13;;;;;;;3.25;2.50;;;;;;;11.22;45.97;100321.77;1831890;76;21282;-77
2021/04/26 07:12:40;;;;;;;1.90;1.65;;;;;;;11.14;46.18;100318.59;1829559;76;21177;-78
2021/04/26 07:15:10;;;;;;;1.80;1.32;;;;;;;11.09;46.35;100322.28;1829826;76;21213;-78
2021/04/26 07:17:42;;;;;;;5.15;4.65;;;;;;;11.04;46.45;100336.17;1834387;76;21643;-78
2021/04/26 07:20:13;;;;;;;16.35;11.10;;;;;;;11.02;46.58;100329.28;1798806;77;21700;-78
2021/04/26 07:22:44;;;;;;;7.55;6.08;;;;;;;10.98;46.71;100324.75;1775110;79;21849;-76
2021/04/26 07:25:12;;;;;;;2.50;2.20;;;;;;;10.95;46.88;100336.32;1777660;79;21273;-77
2021/04/26 07:27:40;;;;;;;2.33;1.47;;;;;;;10.92;47.14;100336.97;1798349;78;21228;-78
2021/04/26 07:30:10;;;;;;;1.32;1.22;;;;;;;10.92;47.16;100344.17;1796305;78;21205;-78
2021/04/26 07:32:44;;;;;;;1.57;1.02;;;;;;;10.91;47.27;100355.90;1796763;78;21675;-77
2021/04/26 07:35:13;;;;;;;2.05;1.37;;;;;;;10.92;47.33;100358.91;1760769;79;21221;-80
2021/04/26 07:37:42;;;;;;;1.10;0.88;;;;;;;10.94;47.42;100362.25;1794299;78;21222;-78
2021/04/26 07:40:13;;;;;;;1.50;1.22;;;;;;;10.96;47.62;100365.63;1789852;78;21155;-80
2021/04/26 07:42:42;;;;;;;1.27;1.00;;;;;;;10.98;47.54;100364.95;1799725;78;21254;-79
2021/04/26 07:45:11;;;;;;;2.42;1.47;;;;;;;11.01;47.40;100361.95;1780076;78;21110;-78
2021/04/26 07:47:41;;;;;;;1.42;1.20;;;;;;;11.03;47.38;100377.35;1795001;78;21102;-76
2021/04/26 07:50:10;;;;;;;1.67;1.50;;;;;;;11.09;47.47;100376.72;1800951;78;21152;-81
2021/04/26 07:52:37;;;;;;;1.75;1.65;;;;;;;11.13;47.45;100392.82;1793694;78;21123;-80
2021/04/26 07:55:06;;;;;;;0.98;0.88;;;;;;;11.16;47.41;100405.88;1773220;78;21207;-78
2021/04/26 07:57:35;;;;;;;1.10;0.95;;;;;;;11.17;47.29;100407.58;1800682;78;21449;-78
2021/04/26 08:00:12;;;;;;;3.37;3.05;;;;;;;11.21;47.41;100404.05;1748676;79;21149;-79
2021/04/26 08:02:40;;;;;;;2.20;1.72;;;;;;;11.23;47.43;100401.22;1726776;79;21174;-78
2021/04/26 08:05:24;;;;;;;2.05;1.60;;;;;;;11.23;47.43;100407.42;1750064;79;21141;-76
2021/04/26 08:07:55;;;;;;;0.88;0.88;;;;;;;11.21;47.36;100408.06;1755435;79;21420;-77
2021/04/26 08:10:22;;;;;;;1.50;1.25;;;;;;;11.17;47.39;100408.92;1779544;79;21656;-76
2021/04/26 08:12:55;;;;;;;2.33;1.35;;;;;;;11.15;47.56;100409.56;1775755;79;21196;-78
2021/04/26 08:15:31;;;;;;;1.47;0.90;;;;;;;11.16;47.64;100401.02;1774928;79;21604;-76
2021/04/26 08:18:00;;;;;;;0.93;0.82;;;;;;;11.18;47.31;100406.57;1782580;79;21117;-79
2021/04/26 08:20:28;;;;;;;2.00;1.30;;;;;;;11.21;47.29;100409.91;1783080;79;21611;-79
2021/04/26 08:23:11;;;;;;;2.10;1.00;;;;;;;11.21;47.36;100415.27;1779023;79;21129;-77
2021/04/26 08:25:43;;;;;;;1.62;1.30;;;;;;;11.18;47.50;100419.97;1778832;79;21624;-78
2021/04/26 08:28:35;;;;;;;1.40;1.30;;;;;;;11.18;47.49;100419.97;1769822;79;21113;-76
2021/04/26 08:31:06;;;;;;;1.17;1.07;;;;;;;11.16;47.46;100424.64;1781840;79;21677;-78
2021/04/26 08:33:35;;;;;;;1.32;1.07;;;;;;;11.13;47.56;100430.35;1783015;79;21112;-78
2021/04/26 08:36:03;;;;;;;1.10;1.00;;;;;;;11.15;47.69;100438.22;1778191;79;21128;-77
2021/04/26 08:38:30;;;;;;;0.85;0.82;;;;;;;11.15;47.48;100445.76;1806616;78;21117;-78
2021/04/26 08:40:57;;;;;;;2.98;1.27;;;;;;;11.15;47.68;100448.95;1797818;78;21148;-83
2021/04/26 08:43:25;;;;;;;1.30;1.02;;;;;;;11.15;47.68;100456.98;1754043;80;21163;-79
2021/04/26 08:45:52;;;;;;;;;;;;;;;11.15;47.54;100461.84;1766375;80;21589;-80
2021/04/26 08:48:19;;;;;;;1.17;1.07;;;;;;;11.13;47.47;100465.20;1763710;79;20292;-79
2021/04/26 08:50:47;;;;;;;1.12;1.02;;;;;;;11.14;47.48;100461.52;1797430;78;21010;-77
2021/04/26 08:53:15;;;;;;;2.33;1.32;;;;;;;11.14;47.57;100466.88;1794864;78;21081;-76
2021/04/26 08:55:42;;;;;;;2.77;1.30;;;;;;;11.14;47.44;100474.91;1794557;78;21173;-78
2021/04/26 08:58:10;;;;;;;3.42;1.70;;;;;;;11.11;47.29;100485.95;1775551;79;21188;-78
2021/04/26 09:00:38;;;;;;;3.58;1.45;;;;;;;11.11;47.42;100483.27;1796039;78;21149;-79
2021/04/26 09:03:08;;;;;;;2.60;1.45;;;;;;;11.12;47.53;100503.70;1771413;78;21207;-80
2021/04/26 09:05:40;;;;;;;2.47;1.45;;;;;;;11.15;47.55;100495.35;1770370;79;21936;-78
2021/04/26 09:08:50;;;;;;;1.92;1.05;;;;;;;11.18;47.59;100497.72;1735376;79;21451;-81
2021/04/26 09:11:36;;;;;;;1.45;1.30;;;;;;;11.23;47.49;100492.38;1771214;79;21164;-78
2021/04/26 09:14:38;;;;;;;2.25;1.47;;;;;;;11.25;47.24;100493.05;1770933;79;21125;-78
2021/04/26 09:17:34;;;;;;;2.27;1.57;;;;;;;11.21;47.36;100491.18;1734045;80;21092;-77
2021/04/26 09:20:20;;;;;;;1.75;1.52;;;;;;;11.18;47.40;100497.72;1769440;78;21097;-80
2021/04/26 09:23:00;;;;;;;1.62;1.40;;;;;;;11.20;47.36;100499.39;1772031;78;21139;-78
2021/04/26 09:25:40;;;;;;;2.02;1.30;;;;;;;11.18;47.36;100496.38;1798558;78;21145;-77
2021/04/26 09:28:19;;;;;;;4.53;1.40;;;;;;;11.17;47.19;100501.41;1795133;78;21115;-78
2021/04/26 09:30:55;;;;;;;1.20;1.10;;;;;;;11.18;47.38;100504.42;1798046;78;21808;-77
2021/04/26 09:33:43;;;;;;;1.37;1.20;;;;;;;11.20;47.34;100493.53;1764806;78;21090;-77
2021/04/26 09:36:21;;;;;;;1.42;1.00;;;;;;;11.18;47.18;100502.25;1773443;78;21566;-77
2021/04/26 09:38:52;;;;;;;1.20;1.10;;;;;;;11.18;47.44;100501.75;1743282;80;21137;-79
2021/04/26 09:41:32;;;;;;;1.15;1.05;;;;;;;11.24;47.33;100510.14;1781017;78;21616;-78
2021/04/26 09:44:05;;;;;;;2.30;1.85;;;;;;;11.27;47.09;100508.48;1773784;79;21138;-79
2021/04/26 09:46:47;;;;;;;1.60;1.42;;;;;;;11.27;46.95;100500.44;1763257;79;21117;-79
2021/04/26 09:49:24;;;;;;;1.32;1.20;;;;;;;11.28;46.94;100499.44;1782967;79;21157;-78
2021/04/26 09:51:57;;;;;;;1.65;1.22;;;;;;;11.29;46.94;100499.77;1782205;79;21140;-76
2021/04/26 09:54:37;;;;;;;1.20;0.95;;;;;;;11.27;46.73;100486.53;1779772;79;21628;-77
2021/04/26 09:57:08;;;;;;;0.88;0.82;;;;;;;11.26;46.71;100492.88;1751972;79;21129;-77
2021/04/26 09:59:38;;;;;;;1.25;1.15;;;;;;;11.28;46.87;100489.55;1780712;79;21130;-76
2021/04/26 10:02:07;;;;;;;1.65;1.17;;;;;;;11.37;46.86;100496.62;1775570;79;21155;-77
2021/04/26 10:04:38;;;;;;;1.37;1.20;;;;;;;11.41;46.75;100499.82;1736595;78;21166;-79
2021/04/26 10:07:13;;;;;;;1.92;1.22;;;;;;;11.45;46.72;100497.16;1791035;78;21140;-82
2021/04/26 10:09:48;;;;;;;1.70;1.40;;;;;;;11.49;46.60;100502.53;1795523;78;21147;-80
2021/04/26 10:12:16;;;;;;;1.55;1.05;;;;;;;11.57;46.84;100501.19;1793032;78;21109;-77
2021/04/26 10:14:45;;;;;;;2.20;1.17;;;;;;;11.65;46.71;100506.59;1789005;78;21125;-80
2021/04/26 10:17:21;;;;;;;1.27;1.15;;;;;;;11.71;46.32;100510.45;1770104;78;21134;-77
2021/04/26 10:19:56;;;;;;;2.02;1.87;;;;;;;11.79;46.12;100516.34;1759949;78;21137;-78
2021/04/26 10:22:40;;;;;;;3.08;2.00;;;;;;;11.82;45.99;100515.55;1754712;79;22066;-77
2021/04/26 10:25:14;;;;;;;1.50;1.40;;;;;;;11.86;45.72;100518.75;1774470;79;21619;-76
2021/04/26 10:27:45;;;;;;;2.02;1.35;;;;;;;11.92;45.68;100524.80;1776206;79;21265;-78
2021/04/26 10:30:16;;;;;;;4.58;1.80;;;;;;;12.01;45.52;100522.97;1775903;79;21143;-76
2021/04/26 10:33:00;;;;;;;1.72;1.50;;;;;;;12.09;45.52;100528.34;1771120;79;21119;-79
2021/04/26 10:35:46;;;;;;;4.08;1.85;;;;;;;12.17;45.02;100541.28;1781637;79;21100;-78
2021/04/26 10:38:46;;;;;;;1.95;1.55;;;;;;;12.27;44.74;100541.12;1799657;77;23345;-79
2021/04/26 10:41:58;;;;;;;1.92;1.62;;;;;;;12.27;44.37;100542.97;1799710;77;21109;-81
2021/04/26 10:44:44;;;;;;;2.37;1.85;;;;;;;12.27;44.04;100545.66;1777824;77;21145;-80
2021/04/26 10:47:18;;;;;;;2.60;1.87;;;;;;;12.29;43.56;100557.89;1805544;77;21046;-76
2021/04/26 10:50:03;;;;;;;3.05;1.80;;;;;;;12.30;43.43;100565.44;1785280;78;21132;-78
2021/04/26 10:52:36;;;;;;;3.55;1.98;;;;;;;12.30;43.19;100564.09;1777923;79;21692;-80
2021/04/26 10:55:29;;;;;;;3.12;1.80;;;;;;;12.34;43.17;100570.82;1777184;78;21156;-78
2021/04/26 10:58:02;;;;;;;4.72;2.02;;;;;;;12.39;42.97;100574.67;1772498;79;21166;-78
2021/04/26 11:00:41;;;;;;;3.62;1.80;;;;;;;12.39;42.62;100574.67;1791996;78;21184;-77
2021/04/26 11:03:14;;;;;;;3.55;1.98;;;;;;;12.34;42.74;100577.03;1795106;78;21117;-84
2021/04/26 11:05:46;;;;;;;3.77;2.00;;;;;;;12.34;42.92;100577.03;1786642;78;20982;-76
2021/04/26 11:08:37;;;;;;;4.83;1.50;;;;;;;12.36;42.70;100576.88;1791383;78;21105;-79
2021/04/26 11:11:30;;;;;;;4.42;1.87;;;;;;;12.35;42.08;100575.18;1770560;79;21164;-77
2021/04/26 11:13:57;;;;;;;5.62;2.47;;;;;;;12.33;42.21;100585.27;1772729;78;21196;-78
2021/04/26 11:16:32;;;;;;;3.37;1.70;;;;;;;12.35;42.47;100587.27;1763380;79;21145;-79
2021/04/26 11:19:09;;;;;;;3.58;1.60;;;;;;;12.38;42.63;100585.60;1771641;79;21661;-78
2021/04/26 11:21:49;;;;;;;4.97;2.12;;;;;;;12.42;42.34;100589.13;1776024;79;21121;-77
2021/04/26 11:24:30;;;;;;;4.25;1.40;;;;;;;12.46;42.58;100593.67;1775055;78;21133;-77
2021/04/26 11:27:19;;;;;;;1.87;1.30;;;;;;;12.51;42.63;100592.66;1770772;78;21121;-77
2021/04/26 11:29:53;;;;;;;1.55;1.30;;;;;;;12.58;42.48;100588.31;1778261;78;21117;-80
2021/04/26 11:32:22;;;;;;;1.52;1.42;;;;;;;12.62;42.36;100580.22;1774385;79;20959;-77
2021/04/26 11:34:59;;;;;;;2.33;1.22;;;;;;;12.66;42.01;100588.28;1778513;78;21122;-80
2021/04/26 11:37:36;;;;;;;1.40;1.30;;;;;;;12.68;41.91;100584.11;1777114;79;21629;-80
2021/04/26 11:40:25;;;;;;;1.98;1.37;;;;;;;12.66;42.04;100585.59;1769576;79;21170;-81
2021/04/26 11:42:52;;;;;;;2.00;1.10;;;;;;;12.69;41.98;100588.47;1775536;79;21136;-79
2021/04/26 11:45:21;;;;;;;1.75;1.30;;;;;;;12.69;41.85;100601.91;1772604;78;21092;-79
2021/04/26 11:47:49;;;;;;;1.72;1.42;;;;;;;12.69;41.87;100605.94;1770939;79;21087;-79
2021/04/26 11:50:18;;;;;;;2.12;1.60;;;;;;;12.70;41.75;100605.75;1773149;79;21131;-78
2021/04/26 11:52:45;;;;;;;1.32;1.20;;;;;;;12.76;41.97;100608.27;1774682;79;21134;-79